Time;durP1;ratioP1;P1;durP2;ratioP2;P2;SDS_P1;SDS_P2;PMS_P1;PMS_P2;Temp;Humidity;BMP_temperature;BMP_pressure;BME280_temperature;BME280_humidity;BME280_pressure;Samples;Min_cycle;Max_cycle;Signal;HPM_P1;HPM_P2
2023/06/26 00:01:43;;;;;;;6.53;6.03;;;23.00;98.30;;;;;;5072625;28;20045;-81
2023/06/26 00:04:14;;;;;;;7.68;6.50;;;23.00;98.30;;;;;;5077243;28;20040;-81
2023/06/26 00:06:40;;;;;;;7.97;6.10;;;23.10;98.30;;;;;;5075838;28;20535;-81
2023/06/26 00:09:06;;;;;;;7.57;6.30;;;23.00;98.20;;;;;;5071810;28;20094;-78
2023/06/26 00:11:33;;;;;;;7.03;6.43;;;23.20;98.30;;;;;;5069255;28;20048;-79
2023/06/26 00:14:00;;;;;;;6.35;5.75;;;23.00;98.20;;;;;;5068951;28;20106;-78
2023/06/26 00:16:26;;;;;;;6.45;5.95;;;23.00;98.30;;;;;;5052855;28;20060;-78
2023/06/26 00:18:54;;;;;;;7.15;5.65;;;23.00;98.20;;;;;;5052797;28;20119;-79
2023/06/26 00:21:20;;;;;;;6.72;6.13;;;23.00;98.50;;;;;;5051424;28;20632;-78
2023/06/26 00:23:49;;;;;;;7.53;6.82;;;23.00;98.30;;;;;;5052513;28;20561;-79
2023/06/26 00:26:14;;;;;;;6.25;5.70;;;23.10;98.30;;;;;;5052136;28;20044;-81
2023/06/26 00:28:40;;;;;;;6.80;6.20;;;23.10;98.30;;;;;;5052273;28;20375;-81
2023/06/26 00:31:06;;;;;;;7.95;6.20;;;23.10;98.30;;;;;;5052087;28;20084;-80
2023/06/26 00:33:31;;;;;;;6.53;5.70;;;23.00;98.30;;;;;;5051618;28;20114;-81
2023/06/26 00:35:57;;;;;;;6.97;6.07;;;23.00;98.20;;;;;;5068295;28;20055;-81
2023/06/26 00:38:23;;;;;;;6.28;5.78;;;23.00;98.20;;;;;;5051330;28;20044;-81
2023/06/26 00:40:49;;;;;;;7.60;6.47;;;23.00;98.20;;;;;;5070072;28;20036;-80
2023/06/26 00:43:16;;;;;;;7.40;6.35;;;23.00;98.20;;;;;;5051064;28;20403;-81
2023/06/26 00:45:42;;;;;;;7.47;6.75;;;23.00;98.10;;;;;;5052490;28;20037;-81
2023/06/26 00:48:11;;;;;;;7.03;6.05;;;23.00;98.10;;;;;;5051257;28;20492;-81
2023/06/26 00:50:37;;;;;;;7.68;6.38;;;23.00;98.10;;;;;;5061829;28;20056;-81
2023/06/26 00:53:06;;;;;;;7.00;6.40;;;23.00;98.10;;;;;;5069610;28;20486;-81
2023/06/26 00:55:32;;;;;;;7.22;6.53;;;22.90;98.10;;;;;;5051425;28;20047;-80
2023/06/26 00:57:57;;;;;;;7.50;6.43;;;23.00;98.20;;;;;;5069782;28;20541;-81
2023/06/26 01:00:23;;;;;;;7.07;6.20;;;22.90;98.20;;;;;;5067646;28;20040;-80
2023/06/26 01:02:49;;;;;;;7.22;6.50;;;22.90;98.20;;;;;;5068619;28;20047;-80
2023/06/26 01:05:20;;;;;;;7.20;6.60;;;22.90;98.20;;;;;;5067743;28;20083;-81
2023/06/26 01:07:50;;;;;;;6.90;6.28;;;22.90;98.20;;;;;;5067795;28;20363;-78
2023/06/26 01:10:16;;;;;;;6.63;6.03;;;22.90;98.20;;;;;;5067296;28;20557;-78
2023/06/26 01:12:51;;;;;;;7.00;6.40;;;22.90;98.20;;;;;;5068233;28;20123;-81
2023/06/26 01:15:21;;;;;;;7.13;6.43;;;22.90;98.30;;;;;;5035366;28;20101;-80
2023/06/26 01:17:47;;;;;;;6.75;6.15;;;22.90;98.30;;;;;;5067469;28;20053;-81
2023/06/26 01:20:14;;;;;;;7.10;6.43;;;22.90;98.30;;;;;;5067591;28;20059;-80
2023/06/26 01:23:17;;;;;;;7.90;6.60;;;22.90;98.20;;;;;;5068144;28;20045;-81
2023/06/26 01:26:01;;;;;;;7.35;6.60;;;22.90;98.30;;;;;;5044007;28;20037;-81
2023/06/26 01:28:28;;;;;;;8.15;6.45;;;22.90;98.30;;;;;;5067886;28;20094;-81
2023/06/26 01:30:54;;;;;;;7.68;6.97;;;22.90;98.30;;;;;;5068034;28;20146;-80
2023/06/26 01:33:20;;;;;;;6.90;5.93;;;22.90;98.20;;;;;;5050134;28;20095;-81
2023/06/26 01:35:49;;;;;;;7.22;6.63;;;22.80;98.30;;;;;;5068005;28;20052;-81
2023/06/26 01:38:20;;;;;;;8.13;7.30;;;22.80;98.40;;;;;;5034005;28;20036;-80
2023/06/26 01:40:46;;;;;;;7.18;6.47;;;22.80;98.40;;;;;;5071475;28;20048;-81
2023/06/26 01:43:51;;;;;;;7.85;7.10;;;22.80;98.40;;;;;;5059108;28;20037;-81
2023/06/26 01:46:24;;;;;;;7.93;7.13;;;22.70;98.40;;;;;;5047567;28;20063;-80
2023/06/26 01:49:19;;;;;;;7.90;7.07;;;22.70;98.60;;;;;;5051039;28;20357;-81
2023/06/26 01:51:58;;;;;;;8.23;7.00;;;22.70;98.70;;;;;;5006079;28;20072;-79
2023/06/26 01:54:30;;;;;;;7.78;7.07;;;22.70;98.60;;;;;;5067416;28;20144;-79
2023/06/26 01:56:58;;;;;;;8.65;7.05;;;22.60;98.60;;;;;;5050598;28;20079;-79
2023/06/26 01:59:26;;;;;;;7.80;7.10;;;22.60;98.70;;;;;;5068182;28;20126;-79
2023/06/26 02:01:52;;;;;;;7.55;6.75;;;22.60;98.80;;;;;;5050842;28;20051;-79
2023/06/26 02:04:18;;;;;;;8.65;7.78;;;22.60;98.90;;;;;;5050255;28;20364;-79
2023/06/26 02:06:44;;;;;;;8.70;7.80;;;22.50;99.00;;;;;;5067778;28;20052;-79
2023/06/26 02:09:13;;;;;;;8.80;7.97;;;22.50;99.10;;;;;;5067060;28;20127;-78
2023/06/26 02:11:38;;;;;;;8.30;7.50;;;22.50;99.20;;;;;;5067267;28;20128;-79
2023/06/26 02:14:04;;;;;;;8.32;7.60;;;22.40;99.20;;;;;;5066919;28;20434;-79
2023/06/26 02:16:30;;;;;;;8.40;7.25;;;22.50;99.30;;;;;;5049818;28;20495;-79
2023/06/26 02:18:57;;;;;;;9.40;8.48;;;22.40;99.40;;;;;;5053122;28;20049;-79
2023/06/26 02:21:23;;;;;;;8.63;7.82;;;22.30;99.40;;;;;;5071920;28;20055;-79
2023/06/26 02:23:49;;;;;;;10.68;8.73;;;22.30;99.60;;;;;;5054698;28;20123;-78
2023/06/26 02:26:14;;;;;;;9.88;7.82;;;22.30;99.60;;;;;;5071702;28;20063;-79
2023/06/26 02:28:40;;;;;;;9.15;8.25;;;22.20;99.80;;;;;;5070910;28;20052;-79
2023/06/26 02:31:08;;;;;;;10.00;8.50;;;22.30;99.90;;;;;;5070978;28;20047;-78
2023/06/26 02:33:34;;;;;;;9.52;8.63;;;22.20;99.90;;;;;;5070279;28;20045;-79
2023/06/26 02:36:03;;;;;;;10.48;9.35;;;22.20;99.90;;;;;;5072509;28;20048;-78
2023/06/26 02:38:30;;;;;;;10.13;8.95;;;22.10;99.90;;;;;;5053698;28;20043;-78
2023/06/26 02:40:56;;;;;;;9.50;8.60;;;22.10;99.90;;;;;;5054495;28;20036;-78
2023/06/26 02:43:22;;;;;;;9.60;8.70;;;22.10;99.90;;;;;;5070065;28;20524;-79
2023/06/26 02:45:47;;;;;;;9.15;8.30;;;22.00;99.90;;;;;;5070897;28;20052;-80
2023/06/26 02:48:15;;;;;;;8.82;8.10;;;22.00;99.90;;;;;;5071216;28;20451;-79
2023/06/26 02:50:40;;;;;;;9.90;9.00;;;22.10;99.90;;;;;;5053299;28;20058;-79
2023/06/26 02:53:08;;;;;;;11.00;8.68;;;22.00;99.90;;;;;;5053826;28;20041;-79
2023/06/26 02:55:34;;;;;;;10.25;8.95;;;22.10;99.90;;;;;;5070350;28;20028;-79
2023/06/26 02:58:00;;;;;;;9.70;8.80;;;22.00;99.90;;;;;;5070187;28;20046;-79
2023/06/26 03:00:26;;;;;;;10.73;9.07;;;22.00;99.90;;;;;;5053402;28;20446;-79
2023/06/26 03:02:51;;;;;;;10.18;9.20;;;21.90;99.90;;;;;;5070389;28;20037;-79
2023/06/26 03:05:17;;;;;;;9.98;9.02;;;21.90;99.90;;;;;;5053478;28;20048;-79
2023/06/26 03:07:43;;;;;;;9.65;8.65;;;21.80;99.90;;;;;;5053495;28;20032;-78
2023/06/26 03:10:09;;;;;;;10.73;9.35;;;21.80;99.90;;;;;;5053899;28;20151;-79
2023/06/26 03:12:34;;;;;;;10.02;9.13;;;21.80;99.90;;;;;;5070898;28;20032;-80
2023/06/26 03:15:00;;;;;;;10.60;9.55;;;21.80;99.90;;;;;;5057749;28;20044;-80
2023/06/26 03:17:28;;;;;;;12.38;11.18;;;21.70;99.90;;;;;;5061105;28;20129;-80
2023/06/26 03:19:54;;;;;;;13.63;10.68;;;21.70;99.90;;;;;;5055425;28;20036;-79
2023/06/26 03:22:19;;;;;;;11.05;10.05;;;21.60;99.90;;;;;;5070965;28;20044;-78
2023/06/26 03:24:45;;;;;;;12.88;11.57;;;21.70;99.90;;;;;;5053650;28;20036;-79
2023/06/26 03:27:12;;;;;;;12.32;11.02;;;21.60;99.90;;;;;;5037075;28;20555;-80
2023/06/26 03:29:37;;;;;;;12.13;11.02;;;21.50;99.90;;;;;;5069669;28;20600;-80
2023/06/26 03:32:05;;;;;;;13.25;11.05;;;21.50;99.90;;;;;;5069436;28;20052;-79
2023/06/26 03:34:34;;;;;;;12.40;11.30;;;21.50;99.90;;;;;;5069371;28;20048;-80
2023/06/26 03:36:59;;;;;;;12.82;11.52;;;21.40;99.90;;;;;;5069195;28;20032;-78
2023/06/26 03:39:25;;;;;;;11.98;10.60;;;21.40;99.90;;;;;;5053307;28;20032;-79
2023/06/26 03:41:53;;;;;;;11.43;10.30;;;21.40;99.90;;;;;;5069692;28;20553;-79
2023/06/26 03:44:18;;;;;;;12.95;11.48;;;21.40;99.90;;;;;;5070199;28;20098;-79
2023/06/26 03:46:44;;;;;;;12.88;11.02;;;21.40;99.90;;;;;;5052442;28;20048;-79
2023/06/26 03:49:10;;;;;;;12.43;11.15;;;21.30;99.90;;;;;;5070792;28;20072;-79
2023/06/26 03:51:36;;;;;;;12.50;11.10;;;21.30;99.90;;;;;;5069348;28;20038;-80
2023/06/26 03:54:02;;;;;;;12.07;10.50;;;21.40;99.90;;;;;;5070562;28;20037;-79
2023/06/26 03:56:28;;;;;;;11.88;10.77;;;21.30;99.90;;;;;;5052649;28;20036;-79
2023/06/26 03:58:54;;;;;;;12.90;11.70;;;21.30;99.90;;;;;;5052589;28;20043;-80
2023/06/26 04:01:21;;;;;;;12.88;10.85;;;21.30;99.90;;;;;;5069424;28;20123;-80
2023/06/26 04:03:47;;;;;;;15.82;11.45;;;21.30;99.90;;;;;;5069410;28;20048;-80
2023/06/26 04:06:12;;;;;;;11.85;10.73;;;21.20;99.90;;;;;;5068113;28;20048;-79
2023/06/26 04:08:38;;;;;;;11.98;10.82;;;21.20;99.90;;;;;;5052802;28;20051;-80
2023/06/26 04:11:04;;;;;;;12.80;10.60;;;21.60;99.90;;;;;;5069076;28;20093;-79
2023/06/26 04:13:29;;;;;;;12.45;11.10;;;21.20;99.90;;;;;;5068910;28;20032;-79
2023/06/26 04:15:55;;;;;;;11.98;10.75;;;21.20;99.90;;;;;;5052168;28;20049;-80
2023/06/26 04:18:20;;;;;;;14.05;11.30;;;21.20;99.90;;;;;;5068641;28;20032;-79
2023/06/26 04:21:05;;;;;;;11.43;10.32;;;21.20;99.90;;;;;;5051941;28;20480;-80
2023/06/26 04:23:31;;;;;;;12.88;10.50;;;21.20;99.90;;;;;;5069896;28;20846;-79
2023/06/26 04:25:58;;;;;;;14.65;10.50;;;21.10;99.90;;;;;;5069448;28;20044;-79
2023/06/26 04:28:24;;;;;;;12.68;10.55;;;21.20;99.90;;;;;;5069071;28;20040;-80
2023/06/26 04:30:50;;;;;;;14.90;9.63;;;21.20;99.90;;;;;;5068973;28;20503;-79
2023/06/26 04:33:16;;;;;;;9.27;8.38;;;21.20;99.90;;;;;;5068119;28;20079;-80
2023/06/26 04:35:44;;;;;;;11.73;9.18;;;21.20;99.90;;;;;;5069026;28;20048;-79
2023/06/26 04:38:11;;;;;;;12.50;8.00;;;21.30;99.90;;;;;;5068717;28;20036;-79
2023/06/26 04:40:36;;;;;;;9.15;7.97;;;21.20;99.90;;;;;;5052027;28;20052;-79
2023/06/26 04:43:03;;;;;;;11.98;8.75;;;21.30;99.90;;;;;;5056047;28;20110;-79
2023/06/26 04:45:32;;;;;;;11.15;8.60;;;21.30;99.90;;;;;;5052714;28;20462;-80
2023/06/26 04:48:00;;;;;;;13.75;8.77;;;21.20;99.90;;;;;;5053765;28;20040;-80
2023/06/26 04:50:28;;;;;;;12.70;8.85;;;21.20;99.90;;;;;;5077684;28;20048;-79
2023/06/26 04:52:55;;;;;;;15.93;8.32;;;21.10;99.90;;;;;;5066713;28;20053;-80
2023/06/26 04:55:21;;;;;;;17.58;9.65;;;21.10;99.90;;;;;;5068042;28;20101;-80
2023/06/26 04:57:47;;;;;;;17.60;8.70;;;21.00;99.90;;;;;;5068331;28;20076;-80
2023/06/26 05:00:13;;;;;;;17.35;8.88;;;21.00;99.90;;;;;;5051375;28;20134;-80
2023/06/26 05:02:39;;;;;;;14.27;10.18;;;21.00;99.90;;;;;;5051339;28;20090;-81
2023/06/26 05:05:05;;;;;;;13.57;9.57;;;21.00;99.90;;;;;;5051592;28;20037;-80
2023/06/26 05:07:31;;;;;;;19.55;10.65;;;20.90;99.90;;;;;;5068787;28;20037;-79
2023/06/26 05:09:56;;;;;;;17.42;9.82;;;20.80;99.90;;;;;;5068686;28;20051;-80
2023/06/26 05:12:22;;;;;;;19.13;10.65;;;20.70;99.90;;;;;;5067930;28;20049;-80
2023/06/26 05:14:51;;;;;;;17.70;10.75;;;20.70;99.90;;;;;;5069093;28;20052;-80
2023/06/26 05:17:20;;;;;;;14.57;9.52;;;20.70;99.90;;;;;;5068554;28;20044;-79
2023/06/26 05:19:46;;;;;;;23.15;10.98;;;20.60;99.90;;;;;;5051945;28;20623;-79
2023/06/26 05:22:17;;;;;;;17.48;9.18;;;20.60;99.90;;;;;;5068814;28;20041;-80
2023/06/26 05:24:47;;;;;;;17.75;9.77;;;20.60;99.90;;;;;;5051489;28;20405;-80
2023/06/26 05:27:20;;;;;;;14.38;8.65;;;20.60;99.90;;;;;;5050494;28;20113;-80
2023/06/26 05:29:46;;;;;;;14.68;7.97;;;20.50;99.90;;;;;;5067565;28;20391;-80
2023/06/26 05:32:17;;;;;;;12.93;7.68;;;20.50;99.90;;;;;;5067132;28;20056;-79
2023/06/26 05:34:46;;;;;;;14.90;6.60;;;20.40;99.90;;;;;;5068322;28;20089;-81
2023/06/26 05:37:17;;;;;;;16.20;7.13;;;20.40;99.90;;;;;;5066702;28;20039;-80
2023/06/26 05:39:43;;;;;;;14.75;6.28;;;20.30;99.90;;;;;;5067658;28;20426;-81
2023/06/26 05:42:10;;;;;;;13.80;6.28;;;20.30;99.90;;;;;;5069343;28;20028;-81
2023/06/26 05:44:36;;;;;;;13.45;5.93;;;20.30;99.90;;;;;;5067898;28;20044;-80
2023/06/26 05:47:02;;;;;;;10.52;5.30;;;20.30;99.90;;;;;;5056406;28;20131;-80
2023/06/26 05:49:27;;;;;;;14.48;5.32;;;20.20;99.90;;;;;;5068081;28;20040;-80
2023/06/26 05:51:53;;;;;;;14.20;6.07;;;20.20;99.90;;;;;;5072007;28;20050;-81
2023/06/26 05:54:20;;;;;;;13.00;4.63;;;20.20;99.90;;;;;;5068395;28;20068;-79
2023/06/26 05:56:47;;;;;;;14.20;5.22;;;20.10;99.90;;;;;;5066974;28;20668;-81
2023/06/26 05:59:15;;;;;;;19.23;5.78;;;20.10;99.90;;;;;;5051356;28;20042;-80
2023/06/26 06:01:41;;;;;;;15.27;5.68;;;20.10;99.90;;;;;;5051845;28;20048;-80
2023/06/26 06:04:07;;;;;;;15.40;4.07;;;20.00;99.90;;;;;;5054238;28;20048;-80
2023/06/26 06:06:32;;;;;;;14.95;4.85;;;19.90;99.90;;;;;;5068873;28;20052;-79
2023/06/26 06:08:58;;;;;;;12.07;5.38;;;19.80;99.90;;;;;;5068855;28;20041;-79
2023/06/26 06:11:24;;;;;;;15.50;4.43;;;19.80;99.90;;;;;;5067487;28;20044;-79
2023/06/26 06:13:50;;;;;;;18.65;4.68;;;19.70;99.90;;;;;;5051117;28;20044;-80
2023/06/26 06:16:15;;;;;;;15.98;3.90;;;19.70;99.90;;;;;;5067836;28;20380;-80
2023/06/26 06:18:41;;;;;;;15.00;4.60;;;19.70;99.90;;;;;;5052422;28;20143;-79
2023/06/26 06:21:06;;;;;;;15.38;5.05;;;19.70;99.90;;;;;;5052306;28;20129;-79
2023/06/26 06:23:32;;;;;;;16.63;4.05;;;19.80;99.90;;;;;;5071538;28;20086;-80
2023/06/26 06:25:58;;;;;;;16.50;3.70;;;19.80;99.90;;;;;;5058947;28;20525;-80
2023/06/26 06:28:23;;;;;;;12.18;3.65;;;19.80;99.90;;;;;;5052853;28;20096;-80
2023/06/26 06:30:49;;;;;;;14.70;3.92;;;19.80;99.90;;;;;;5067327;28;20691;-79
2023/06/26 06:33:14;;;;;;;13.98;4.70;;;19.80;99.90;;;;;;5066549;28;20052;-79
2023/06/26 06:35:40;;;;;;;13.15;3.25;;;19.90;99.90;;;;;;5050095;28;20416;-80
2023/06/26 06:38:06;;;;;;;15.80;4.55;;;19.90;99.90;;;;;;5049939;28;20036;-80
2023/06/26 06:40:32;;;;;;;10.00;4.00;;;19.90;99.90;;;;;;5066626;28;20036;-79
2023/06/26 06:42:57;;;;;;;10.45;3.80;;;20.00;99.90;;;;;;5050369;28;20044;-80
2023/06/26 06:45:23;;;;;;;9.07;3.10;;;20.00;99.90;;;;;;5066148;28;20048;-80
2023/06/26 06:47:48;;;;;;;10.65;3.17;;;20.00;99.90;;;;;;5068756;28;20037;-80
2023/06/26 06:50:15;;;;;;;6.00;2.78;;;20.00;99.90;;;;;;5067032;28;20446;-80
2023/06/26 06:52:42;;;;;;;12.02;3.35;;;20.10;99.90;;;;;;5068795;28;20072;-79
2023/06/26 06:55:08;;;;;;;11.98;4.22;;;20.20;99.90;;;;;;5060230;28;20123;-80
2023/06/26 06:57:38;;;;;;;16.98;5.07;;;20.20;99.90;;;;;;5068105;28;20112;-79
2023/06/26 07:00:08;;;;;;;10.20;2.80;;;20.30;99.90;;;;;;5067842;28;20438;-79
2023/06/26 07:02:46;;;;;;;10.57;2.83;;;20.30;99.90;;;;;;5066994;28;20476;-80
2023/06/26 07:05:12;;;;;;;12.15;3.28;;;20.30;99.90;;;;;;5061824;28;20091;-79
2023/06/26 07:07:39;;;;;;;8.88;2.13;;;20.40;99.90;;;;;;5053397;28;20093;-80
2023/06/26 07:10:07;;;;;;;7.05;2.33;;;20.40;99.90;;;;;;5070376;28;20032;-80
2023/06/26 07:12:33;;;;;;;7.03;2.20;;;20.40;99.90;;;;;;5070022;28;20029;-79
2023/06/26 07:15:01;;;;;;;6.78;2.33;;;20.50;99.90;;;;;;5053080;28;20063;-79
2023/06/26 07:17:26;;;;;;;4.35;2.03;;;20.50;99.90;;;;;;5053288;28;20044;-80
2023/06/26 07:19:55;;;;;;;6.07;2.20;;;20.40;99.90;;;;;;5054029;28;20132;-80
2023/06/26 07:22:21;;;;;;;11.80;2.35;;;20.40;99.90;;;;;;5069767;28;20462;-80
2023/06/26 07:24:47;;;;;;;8.48;2.28;;;20.40;99.90;;;;;;5054033;28;20098;-80
2023/06/26 07:27:15;;;;;;;6.78;1.73;;;20.50;99.90;;;;;;5052628;28;20040;-80
2023/06/26 07:29:41;;;;;;;11.65;1.83;;;20.50;99.90;;;;;;5069577;28;20037;-80
2023/06/26 07:32:07;;;;;;;8.32;2.30;;;20.60;99.90;;;;;;5069687;28;20049;-79
2023/06/26 07:34:33;;;;;;;6.90;2.45;;;20.60;99.90;;;;;;5053177;28;20480;-80
2023/06/26 07:36:59;;;;;;;11.32;2.08;;;20.60;99.90;;;;;;5070850;28;20068;-80
2023/06/26 07:39:25;;;;;;;6.90;2.20;;;20.60;99.90;;;;;;5053561;28;20048;-80
2023/06/26 07:41:51;;;;;;;9.88;3.35;;;20.60;99.90;;;;;;5054492;28;20388;-79
2023/06/26 07:44:16;;;;;;;7.22;1.90;;;20.60;99.90;;;;;;5070232;28;20377;-80
2023/06/26 07:46:42;;;;;;;9.32;1.92;;;20.70;99.90;;;;;;5053991;28;20046;-81
2023/06/26 07:49:08;;;;;;;7.80;1.58;;;20.60;99.90;;;;;;5072983;28;20117;-80
2023/06/26 07:51:33;;;;;;;5.60;1.30;;;20.60;99.90;;;;;;5055987;28;20515;-81
2023/06/26 07:53:59;;;;;;;5.90;1.75;;;20.60;99.90;;;;;;5071126;28;20037;-81
2023/06/26 07:56:25;;;;;;;7.20;1.40;;;19.90;99.90;;;;;;5071499;28;20079;-80
2023/06/26 07:58:50;;;;;;;4.60;1.40;;;20.70;99.90;;;;;;5059079;28;20051;-81
2023/06/26 08:01:17;;;;;;;7.88;1.75;;;20.70;99.90;;;;;;5077232;28;20090;-80
2023/06/26 08:03:42;;;;;;;6.20;1.77;;;20.70;99.90;;;;;;5071072;28;20064;-81
2023/06/26 08:06:08;;;;;;;4.28;1.77;;;20.70;99.90;;;;;;5070573;28;20472;-80
2023/06/26 08:08:34;;;;;;;3.30;1.42;;;20.80;99.90;;;;;;5069811;28;20447;-81
2023/06/26 08:10:59;;;;;;;4.18;1.60;;;20.90;99.90;;;;;;5070119;28;20037;-80
2023/06/26 08:13:25;;;;;;;4.28;1.13;;;20.80;99.90;;;;;;5053258;28;20410;-81
2023/06/26 08:15:51;;;;;;;6.63;1.50;;;20.80;99.90;;;;;;5068990;28;20459;-81
2023/06/26 08:18:18;;;;;;;3.97;1.80;;;20.70;99.90;;;;;;5068835;28;20488;-81
2023/06/26 08:20:44;;;;;;;8.98;1.52;;;20.70;99.90;;;;;;5070521;28;20040;-81
2023/06/26 08:23:09;;;;;;;5.88;1.35;;;20.80;99.90;;;;;;5068680;28;20574;-81
2023/06/26 08:25:35;;;;;;;3.33;1.58;;;20.70;99.90;;;;;;5070599;28;20036;-81
2023/06/26 08:28:01;;;;;;;7.35;1.73;;;20.80;99.90;;;;;;5069580;28;20049;-80
2023/06/26 08:30:29;;;;;;;2.28;1.30;;;20.80;99.90;;;;;;5052667;28;20085;-82
2023/06/26 08:32:56;;;;;;;3.50;1.40;;;20.80;99.90;;;;;;5052410;28;20068;-81
2023/06/26 08:35:21;;;;;;;4.30;1.30;;;20.70;99.90;;;;;;5052787;28;20411;-81
2023/06/26 08:37:47;;;;;;;4.57;1.70;;;20.70;99.90;;;;;;5069369;28;20044;-81
2023/06/26 08:40:16;;;;;;;3.20;1.40;;;20.60;99.90;;;;;;5052350;28;20048;-81
2023/06/26 08:42:42;;;;;;;3.25;1.30;;;20.60;99.90;;;;;;5069232;28;20036;-81
2023/06/26 08:45:08;;;;;;;3.95;1.80;;;20.60;99.90;;;;;;5071010;28;20049;-80
2023/06/26 08:47:35;;;;;;;8.73;1.60;;;21.40;99.90;;;;;;5052002;28;20033;-81
2023/06/26 08:50:14;;;;;;;3.17;1.50;;;20.60;99.90;;;;;;5068964;28;20332;-80
2023/06/26 08:53:00;;;;;;;6.30;2.13;;;20.70;99.90;;;;;;5052072;28;20483;-80
2023/06/26 08:55:28;;;;;;;5.55;1.58;;;20.70;99.90;;;;;;5045597;28;20170;-80
2023/06/26 08:57:54;;;;;;;3.33;1.58;;;20.70;99.90;;;;;;5068044;28;20484;-80
2023/06/26 09:00:20;;;;;;;4.65;1.60;;;20.70;99.90;;;;;;5067378;28;20126;-79
2023/06/26 09:02:46;;;;;;;4.55;1.52;;;20.70;99.90;;;;;;5052210;28;20186;-80
2023/06/26 09:05:12;;;;;;;5.10;1.52;;;20.60;99.90;;;;;;5051892;28;20051;-80
2023/06/26 09:07:38;;;;;;;7.60;1.50;;;20.70;99.90;;;;;;5069696;28;20036;-80
2023/06/26 09:10:04;;;;;;;5.18;1.30;;;20.70;99.90;;;;;;5068578;28;20078;-79
2023/06/26 09:12:30;;;;;;;5.10;1.52;;;20.80;99.90;;;;;;5054941;28;20071;-82
2023/06/26 09:14:57;;;;;;;4.68;1.42;;;20.90;99.90;;;;;;5067460;28;20055;-81
2023/06/26 09:17:30;;;;;;;3.60;1.63;;;21.00;99.90;;;;;;5052904;28;20036;-81
2023/06/26 09:19:55;;;;;;;3.08;1.45;;;20.80;99.90;;;;;;5051585;28;20131;-81
2023/06/26 09:22:23;;;;;;;3.17;1.02;;;20.90;99.90;;;;;;5068968;28;20047;-82
2023/06/26 09:24:49;;;;;;;6.35;1.70;;;21.00;99.90;;;;;;5051695;28;20080;-82
2023/06/26 09:27:17;;;;;;;10.02;1.73;;;21.10;99.90;;;;;;5050407;28;20051;-79
2023/06/26 09:29:46;;;;;;;3.25;1.65;;;21.20;99.90;;;;;;5052120;28;20064;-81
2023/06/26 09:32:13;;;;;;;5.00;1.80;;;21.10;99.90;;;;;;5068668;28;20059;-79
2023/06/26 09:34:41;;;;;;;6.05;2.13;;;21.00;99.90;;;;;;5058262;28;20114;-81
2023/06/26 09:37:08;;;;;;;6.47;2.28;;;20.90;99.90;;;;;;5057354;28;20048;-80
2023/06/26 09:39:33;;;;;;;5.53;2.10;;;20.90;99.90;;;;;;5051762;28;20036;-80
2023/06/26 09:41:59;;;;;;;5.35;2.58;;;20.80;99.90;;;;;;5069995;28;20055;-79
2023/06/26 09:44:25;;;;;;;3.65;1.75;;;20.80;99.90;;;;;;5069140;28;20040;-80
2023/06/26 09:46:50;;;;;;;5.28;1.65;;;20.90;99.90;;;;;;5067944;28;20051;-80
2023/06/26 09:49:16;;;;;;;6.05;1.80;;;20.90;99.90;;;;;;5066841;28;20090;-80
2023/06/26 09:51:42;;;;;;;5.20;2.20;;;21.00;99.90;;;;;;5068985;28;20052;-80
2023/06/26 09:54:09;;;;;;;9.60;2.22;;;21.10;99.90;;;;;;5050319;28;20086;-80
2023/06/26 09:56:35;;;;;;;5.20;2.00;;;21.20;99.90;;;;;;5050008;28;20618;-80
2023/06/26 09:59:03;;;;;;;4.47;1.70;;;21.30;99.90;;;;;;5051384;28;20148;-79
2023/06/26 10:01:30;;;;;;;6.60;2.60;;;21.40;99.90;;;;;;5042573;28;20032;-80
2023/06/26 10:03:59;;;;;;;9.57;2.40;;;21.30;99.90;;;;;;5067214;28;20041;-80
2023/06/26 10:06:30;;;;;;;3.85;2.08;;;21.40;99.90;;;;;;5068000;28;20476;-80
2023/06/26 10:08:58;;;;;;;6.40;2.17;;;21.40;99.90;;;;;;5067302;28;20044;-80
2023/06/26 10:11:30;;;;;;;6.18;1.98;;;21.40;99.90;;;;;;5066588;28;20048;-80
2023/06/26 10:13:57;;;;;;;4.35;1.80;;;21.40;99.90;;;;;;5068974;28;20044;-80
2023/06/26 10:16:28;;;;;;;5.45;2.00;;;21.40;99.90;;;;;;5066606;28;20054;-80
2023/06/26 10:19:00;;;;;;;5.55;2.10;;;21.30;99.90;;;;;;5067518;28;20044;-81
2023/06/26 10:21:27;;;;;;;4.88;1.40;;;21.30;99.90;;;;;;5050750;28;20090;-81
2023/06/26 10:24:15;;;;;;;3.25;1.85;;;21.30;99.90;;;;;;5059158;28;20057;-81
2023/06/26 10:27:09;;;;;;;4.55;2.80;;;21.30;99.90;;;;;;5074678;28;20082;-81
2023/06/26 10:30:53;;;;;;;3.85;1.98;;;21.50;99.90;;;;;;5025394;28;20052;-83
2023/06/26 10:33:36;;;;;;;4.75;1.90;;;21.60;99.90;;;;;;5084624;28;20048;-81
2023/06/26 10:36:28;;;;;;;4.30;1.65;;;21.60;99.90;;;;;;5082980;28;20039;-81
2023/06/26 10:39:10;;;;;;;5.50;1.77;;;21.80;99.90;;;;;;5084547;28;20045;-80
2023/06/26 10:41:43;;;;;;;2.58;1.52;;;21.40;99.90;;;;;;5056456;28;20125;-81
2023/06/26 10:44:16;;;;;;;8.18;1.77;;;21.80;99.90;;;;;;5072427;28;20043;-81
2023/06/26 10:46:53;;;;;;;5.57;1.58;;;21.50;99.90;;;;;;5063215;28;20066;-82
2023/06/26 10:49:46;;;;;;;4.82;1.20;;;21.50;99.90;;;;;;5053612;28;20040;-80
2023/06/26 10:52:12;;;;;;;3.60;1.33;;;21.40;99.90;;;;;;5053916;28;20052;-82
2023/06/26 10:54:38;;;;;;;6.05;1.88;;;21.30;99.90;;;;;;5070807;28;20470;-81
2023/06/26 10:57:07;;;;;;;4.20;1.40;;;21.40;99.90;;;;;;5069981;28;20048;-82
2023/06/26 10:59:34;;;;;;;8.45;1.90;;;21.50;99.90;;;;;;5071062;28;20332;-82
2023/06/26 11:02:01;;;;;;;4.00;2.20;;;21.70;99.90;;;;;;5037044;28;20048;-80
2023/06/26 11:04:52;;;;;;;3.40;1.50;;;21.80;99.90;;;;;;5053888;28;20542;-81
2023/06/26 11:07:26;;;;;;;7.05;1.45;;;21.80;99.90;;;;;;5073906;28;20044;-79
2023/06/26 11:10:10;;;;;;;4.03;1.20;;;21.80;99.90;;;;;;5080762;28;20080;-81
2023/06/26 11:12:37;;;;;;;;;;;21.60;99.80;;;;;;5055602;28;20170;-80
2023/06/26 11:15:07;;;;;;;3.17;0.75;;;21.50;99.60;;;;;;5049758;28;19920;-79
2023/06/26 11:17:34;;;;;;;5.10;1.02;;;21.50;99.90;;;;;;5070165;28;20060;-79
2023/06/26 11:20:00;;;;;;;10.00;1.92;;;22.60;99.90;;;;;;5052417;28;20048;-81
2023/06/26 11:22:27;;;;;;;6.10;0.88;;;21.70;99.90;;;;;;5051162;28;20068;-84
2023/06/26 11:24:54;;;;;;;6.13;2.00;;;21.90;99.40;;;;;;5069119;28;20043;-78
2023/06/26 11:30:41;;;;;;;5.90;0.85;;;21.70;98.90;;;;;;5069621;28;20127;-81
2023/06/26 11:33:10;;;;;;;5.53;1.23;;;21.90;99.10;;;;;;5049624;28;20185;-81
2023/06/26 11:35:37;;;;;;;8.82;1.20;;;22.10;99.00;;;;;;5051580;28;20087;-80
2023/06/26 11:38:04;;;;;;;6.20;1.13;;;22.00;98.60;;;;;;5067488;28;20040;-81
2023/06/26 11:40:35;;;;;;;11.02;2.00;;;22.00;98.80;;;;;;5051365;28;20048;-81
2023/06/26 11:43:03;;;;;;;2.15;0.90;;;21.90;98.40;;;;;;5068541;28;20036;-80
2023/06/26 11:45:30;;;;;;;5.55;0.80;;;21.80;97.50;;;;;;5051714;28;20044;-80
2023/06/26 11:47:56;;;;;;;3.03;0.75;;;21.80;97.80;;;;;;5068136;28;20439;-80
2023/06/26 11:50:22;;;;;;;3.95;0.90;;;21.80;97.50;;;;;;5066164;28;20248;-79
2023/06/26 11:52:58;;;;;;;4.20;1.40;;;22.10;97.60;;;;;;5048643;28;20068;-81
2023/06/26 11:55:25;;;;;;;3.60;1.10;;;21.90;97.60;;;;;;5069268;28;20036;-80
2023/06/26 11:57:54;;;;;;;4.00;1.00;;;21.80;97.20;;;;;;5053222;28;20041;-81
2023/06/26 12:00:20;;;;;;;4.20;1.10;;;21.80;97.30;;;;;;5070946;28;20036;-81
2023/06/26 12:02:46;;;;;;;4.85;0.98;;;21.80;97.30;;;;;;5052908;28;20045;-81
2023/06/26 12:05:17;;;;;;;6.05;1.38;;;21.90;97.60;;;;;;5051969;28;20043;-80
2023/06/26 12:07:45;;;;;;;4.85;1.15;;;21.80;97.40;;;;;;5070509;28;20120;-82
2023/06/26 12:10:13;;;;;;;6.82;1.20;;;21.90;97.60;;;;;;5068480;28;20484;-81
2023/06/26 12:12:39;;;;;;;6.25;1.50;;;21.80;97.70;;;;;;5085325;28;20055;-81
2023/06/26 12:15:07;;;;;;;3.17;1.02;;;22.10;97.90;;;;;;5051724;28;20647;-81
2023/06/26 12:17:33;;;;;;;6.18;1.30;;;21.80;97.80;;;;;;5070236;28;20142;-80
2023/06/26 12:19:59;;;;;;;7.97;1.15;;;21.80;97.60;;;;;;5054494;28;20098;-81
2023/06/26 12:22:33;;;;;;;3.63;1.20;;;21.80;97.80;;;;;;5069491;28;20048;-82
2023/06/26 12:24:59;;;;;;;6.97;1.23;;;21.80;97.80;;;;;;5069247;28;20045;-81
2023/06/26 12:27:25;;;;;;;8.38;1.48;;;21.90;97.70;;;;;;5046721;28;20396;-81
2023/06/26 12:29:54;;;;;;;9.98;2.00;;;22.00;97.60;;;;;;5064175;28;20138;-82
2023/06/26 12:32:23;;;;;;;11.43;1.30;;;22.10;97.50;;;;;;5048102;28;20107;-82
2023/06/26 12:34:50;;;;;;;8.45;1.60;;;22.10;97.40;;;;;;5059058;28;20476;-82
2023/06/26 12:37:16;;;;;;;7.35;1.33;;;22.20;97.10;;;;;;5067739;28;20121;-83
2023/06/26 12:39:55;;;;;;;3.25;1.15;;;22.30;96.70;;;;;;5069004;28;20044;-82
2023/06/26 12:42:23;;;;;;;7.38;1.50;;;22.20;96.10;;;;;;5074476;28;20068;-81
2023/06/26 12:44:50;;;;;;;4.28;0.70;;;22.30;96.80;;;;;;5070912;28;20044;-81
2023/06/26 12:47:17;;;;;;;7.63;1.42;;;22.20;95.90;;;;;;5067262;28;20093;-81
2023/06/26 12:49:45;;;;;;;4.60;1.40;;;22.10;96.10;;;;;;5069049;28;20072;-80
2023/06/26 12:52:13;;;;;;;4.68;1.02;;;22.00;96.60;;;;;;5069013;28;20054;-82